Time;durP1;ratioP1;P1;durP2;ratioP2;P2;SDS_P1;SDS_P2;PMS_P1;PMS_P2;Temp;Humidity;BMP_temperature;BMP_pressure;BME280_temperature;BME280_humidity;BME280_pressure;Samples;Min_cycle;Max_cycle;Signal;HPM_P1;HPM_P2
2022/07/21 00:01:46;;;;;;;10.52;7.97;;;;;;;;;;6158247;23;20005;-79
2022/07/21 00:04:12;;;;;;;10.77;7.60;;;;;;;;;;6158192;23;20005;-79
2022/07/21 00:06:39;;;;;;;9.00;7.78;;;;;;;;;;6157917;23;20440;-79
2022/07/21 00:09:05;;;;;;;9.40;7.97;;;;;;;;;;6157507;23;20006;-79
2022/07/21 00:11:31;;;;;;;11.63;8.45;;;;;;;;;;6157855;23;20005;-79
2022/07/21 00:13:58;;;;;;;8.32;7.47;;;;;;;;;;6158439;23;20480;-79
2022/07/21 00:16:24;;;;;;;9.10;7.13;;;;;;;;;;6155951;23;20005;-79
2022/07/21 00:18:50;;;;;;;9.07;7.88;;;;;;;;;;6156101;23;20020;-79
2022/07/21 00:21:17;;;;;;;11.80;7.93;;;;;;;;;;6157848;23;20425;-79
2022/07/21 00:23:43;;;;;;;9.48;7.68;;;;;;;;;;6157604;23;20073;-79
2022/07/21 00:26:09;;;;;;;12.07;8.27;;;;;;;;;;6157658;23;20057;-79
2022/07/21 00:28:35;;;;;;;10.63;8.15;;;;;;;;;;6158345;23;20012;-79
2022/07/21 00:31:01;;;;;;;9.48;7.82;;;;;;;;;;6157702;23;20005;-79
2022/07/21 00:33:27;;;;;;;9.85;7.88;;;;;;;;;;6157824;23;20001;-79
2022/07/21 00:35:53;;;;;;;10.25;7.93;;;;;;;;;;6157792;23;20013;-79
2022/07/21 00:38:19;;;;;;;11.77;8.05;;;;;;;;;;6157138;23;20417;-78
2022/07/21 00:40:46;;;;;;;11.10;8.55;;;;;;;;;;6157706;23;20080;-78
2022/07/21 00:43:12;;;;;;;10.27;8.55;;;;;;;;;;6157527;23;20028;-78
2022/07/21 00:45:38;;;;;;;9.80;8.43;;;;;;;;;;6157224;23;20072;-78
2022/07/21 00:48:04;;;;;;;9.60;8.38;;;;;;;;;;6157806;23;20440;-78
2022/07/21 00:50:32;;;;;;;10.90;8.38;;;;;;;;;;6156391;23;20021;-78
2022/07/21 00:52:58;;;;;;;9.07;8.07;;;;;;;;;;6157384;23;20010;-78
2022/07/21 00:55:24;;;;;;;9.63;8.63;;;;;;;;;;6156972;23;20417;-78
2022/07/21 00:57:52;;;;;;;9.05;8.05;;;;;;;;;;6157344;23;20452;-78
2022/07/21 01:00:20;;;;;;;10.30;7.68;;;;;;;;;;6157236;23;20491;-78
2022/07/21 01:02:47;;;;;;;11.35;7.95;;;;;;;;;;6156010;23;20001;-78
2022/07/21 01:05:18;;;;;;;11.45;8.57;;;;;;;;;;6156382;23;20068;-78
2022/07/21 01:07:48;;;;;;;10.30;7.75;;;;;;;;;;6155770;23;20014;-78
2022/07/21 01:10:15;;;;;;;15.53;8.10;;;;;;;;;;6156881;23;20077;-78
2022/07/21 01:12:41;;;;;;;10.65;7.82;;;;;;;;;;6157014;23;20005;-78
2022/07/21 01:15:09;;;;;;;11.52;8.05;;;;;;;;;;6156740;23;20013;-78
2022/07/21 01:17:35;;;;;;;9.60;7.40;;;;;;;;;;6157119;23;20005;-78
2022/07/21 01:20:06;;;;;;;11.50;8.18;;;;;;;;;;6157482;23;20088;-78
2022/07/21 01:22:32;;;;;;;;;;;;;;;;;;6157727;23;20006;-78
2022/07/21 01:24:58;;;;;;;10.75;7.47;;;;;;;;;;6157233;23;19931;-78
2022/07/21 01:27:27;;;;;;;10.80;8.07;;;;;;;;;;6156689;23;20002;-78
2022/07/21 01:29:54;;;;;;;9.88;7.88;;;;;;;;;;6157189;23;20006;-78
2022/07/21 01:32:20;;;;;;;11.77;8.20;;;;;;;;;;6157024;23;20004;-78
2022/07/21 01:34:46;;;;;;;10.85;8.55;;;;;;;;;;6156936;23;20005;-78
2022/07/21 01:37:13;;;;;;;8.18;7.32;;;;;;;;;;6157333;23;20028;-78
2022/07/21 01:42:24;;;;;;;9.52;7.88;;;;;;;;;;6156761;23;20063;-78
2022/07/21 01:44:51;;;;;;;12.85;7.75;;;;;;;;;;6156773;23;20016;-78
2022/07/21 01:47:17;;;;;;;10.10;7.60;;;;;;;;;;6156582;23;20068;-78
2022/07/21 01:49:44;;;;;;;8.90;7.97;;;;;;;;;;6156534;23;20017;-78
2022/07/21 01:52:10;;;;;;;11.15;8.15;;;;;;;;;;6156872;23;20001;-78
2022/07/21 01:54:36;;;;;;;9.20;7.78;;;;;;;;;;6156869;23;20006;-76
2022/07/21 01:57:02;;;;;;;11.35;8.30;;;;;;;;;;6156470;23;19998;-76
2022/07/21 01:59:29;;;;;;;10.07;7.88;;;;;;;;;;6155158;23;20009;-76
2022/07/21 02:01:55;;;;;;;13.50;8.10;;;;;;;;;;6156809;23;20006;-76
2022/07/21 02:04:21;;;;;;;9.07;7.35;;;;;;;;;;6154790;23;20018;-76
2022/07/21 02:06:47;;;;;;;8.90;7.38;;;;;;;;;;6157084;23;20432;-76
2022/07/21 02:09:13;;;;;;;9.25;7.72;;;;;;;;;;6156998;23;20087;-76
2022/07/21 02:11:39;;;;;;;10.43;7.68;;;;;;;;;;6156707;23;20006;-76
2022/07/21 02:14:06;;;;;;;11.27;8.25;;;;;;;;;;6156532;23;20001;-76
2022/07/21 02:16:32;;;;;;;11.02;8.30;;;;;;;;;;6156655;23;20444;-76
2022/07/21 02:18:58;;;;;;;10.18;7.97;;;;;;;;;;6157348;23;20033;-76
2022/07/21 02:21:24;;;;;;;11.45;8.38;;;;;;;;;;6156277;23;20009;-76
2022/07/21 02:23:50;;;;;;;10.68;7.93;;;;;;;;;;6156877;23;20036;-76
2022/07/21 02:26:19;;;;;;;10.75;7.93;;;;;;;;;;6156255;23;20013;-76
2022/07/21 02:28:47;;;;;;;11.38;8.68;;;;;;;;;;6156970;23;20009;-76
2022/07/21 02:31:15;;;;;;;10.80;8.27;;;;;;;;;;6156153;23;20341;-76
2022/07/21 02:33:44;;;;;;;11.65;8.60;;;;;;;;;;6156545;23;20492;-76
2022/07/21 02:36:10;;;;;;;10.18;8.55;;;;;;;;;;6154957;23;20084;-76
2022/07/21 02:38:36;;;;;;;11.48;8.90;;;;;;;;;;6156427;23;20016;-76
2022/07/21 02:41:03;;;;;;;10.82;8.60;;;;;;;;;;6156047;23;20076;-76
2022/07/21 02:43:29;;;;;;;9.13;8.05;;;;;;;;;;6156475;23;20009;-76
2022/07/21 02:45:59;;;;;;;10.50;7.47;;;;;;;;;;6156287;23;20056;-76
2022/07/21 02:48:28;;;;;;;;;;;;;;;;;;6157079;23;20033;-76
2022/07/21 02:50:54;;;;;;;10.60;7.88;;;;;;;;;;6155454;23;19978;-76
2022/07/21 02:53:23;;;;;;;10.32;8.15;;;;;;;;;;6158497;23;20001;-76
2022/07/21 02:55:52;;;;;;;10.48;8.05;;;;;;;;;;6158360;23;20006;-77
2022/07/21 02:58:22;;;;;;;11.38;8.05;;;;;;;;;;6157948;23;19997;-76
2022/07/21 03:00:58;;;;;;;11.60;8.37;;;;;;;;;;6157079;23;20005;-76
2022/07/21 03:03:26;;;;;;;9.80;7.47;;;;;;;;;;6158805;23;20217;-76
2022/07/21 03:05:52;;;;;;;10.68;8.15;;;;;;;;;;6158462;23;20060;-76
2022/07/21 03:08:19;;;;;;;11.55;8.57;;;;;;;;;;6158360;23;20025;-76
2022/07/21 03:10:45;;;;;;;8.90;7.88;;;;;;;;;;6158178;23;20084;-76
2022/07/21 03:13:11;;;;;;;8.77;7.35;;;;;;;;;;6157984;23;20013;-76
2022/07/21 03:15:38;;;;;;;9.82;7.78;;;;;;;;;;6158018;23;20009;-76
2022/07/21 03:18:04;;;;;;;11.13;8.10;;;;;;;;;;6158208;23;20028;-76
2022/07/21 03:20:32;;;;;;;10.75;7.82;;;;;;;;;;6158070;23;20014;-76
2022/07/21 03:22:58;;;;;;;9.73;7.55;;;;;;;;;;6157900;23;20429;-76
2022/07/21 03:25:24;;;;;;;10.07;7.50;;;;;;;;;;6156957;23;20333;-76
2022/07/21 03:27:51;;;;;;;9.73;7.85;;;;;;;;;;6157766;23;20072;-76
2022/07/21 03:30:17;;;;;;;9.65;7.75;;;;;;;;;;6156078;23;20065;-76
2022/07/21 03:32:44;;;;;;;9.48;7.38;;;;;;;;;;6158106;23;20008;-76
2022/07/21 03:35:11;;;;;;;11.98;7.95;;;;;;;;;;6158078;23;20006;-76
2022/07/21 03:37:48;;;;;;;12.00;8.35;;;;;;;;;;6157934;23;20341;-76
2022/07/21 03:40:15;;;;;;;9.10;7.80;;;;;;;;;;6157880;23;20029;-76
2022/07/21 03:42:42;;;;;;;10.02;8.13;;;;;;;;;;6158639;23;20009;-76
2022/07/21 03:45:08;;;;;;;9.10;7.50;;;;;;;;;;6157718;23;20013;-76
2022/07/21 03:47:35;;;;;;;9.27;7.32;;;;;;;;;;6157651;23;20007;-76
2022/07/21 03:50:01;;;;;;;12.68;7.22;;;;;;;;;;6158569;23;20033;-76
2022/07/21 03:52:27;;;;;;;10.80;7.45;;;;;;;;;;6157633;23;20060;-76
2022/07/21 03:55:09;;;;;;;12.23;8.10;;;;;;;;;;6158414;23;20002;-76
2022/07/21 03:57:39;;;;;;;14.60;8.15;;;;;;;;;;6157000;23;20354;-76
2022/07/21 04:00:07;;;;;;;12.27;8.07;;;;;;;;;;6158164;23;20011;-76
2022/07/21 04:02:33;;;;;;;11.30;8.48;;;;;;;;;;6157651;23;20380;-76
2022/07/21 04:04:59;;;;;;;12.43;7.90;;;;;;;;;;6157864;23;19998;-76
2022/07/21 04:07:25;;;;;;;11.88;7.55;;;;;;;;;;6157897;23;20029;-76
2022/07/21 04:09:51;;;;;;;13.10;8.07;;;;;;;;;;6156719;23;20531;-76
2022/07/21 04:12:18;;;;;;;8.60;7.50;;;;;;;;;;6157731;23;20076;-76
2022/07/21 04:14:44;;;;;;;10.27;8.05;;;;;;;;;;6156044;23;20009;-76
2022/07/21 04:17:10;;;;;;;10.25;7.82;;;;;;;;;;6156137;23;20012;-76
2022/07/21 04:19:36;;;;;;;14.43;7.65;;;;;;;;;;6156119;23;20389;-76
2022/07/21 04:22:02;;;;;;;11.80;7.63;;;;;;;;;;6156439;23;20010;-76
2022/07/21 04:24:28;;;;;;;10.57;7.90;;;;;;;;;;6156081;23;20370;-76
2022/07/21 04:26:54;;;;;;;11.82;7.72;;;;;;;;;;6157295;23;20127;-76
2022/07/21 04:29:20;;;;;;;13.68;8.00;;;;;;;;;;6156986;23;20009;-75
2022/07/21 04:31:47;;;;;;;12.98;8.07;;;;;;;;;;6158271;23;20006;-76
2022/07/21 04:34:13;;;;;;;11.40;7.93;;;;;;;;;;6157581;23;20002;-75
2022/07/21 04:36:39;;;;;;;11.40;8.02;;;;;;;;;;6155912;23;20005;-76
2022/07/21 04:39:05;;;;;;;9.05;7.50;;;;;;;;;;6157894;23;20002;-76
2022/07/21 04:44:32;;;;;;;14.73;7.70;;;;;;;;;;6156960;23;20036;-76
2022/07/21 04:47:08;;;;;;;15.65;7.38;;;;;;;;;;6157160;23;20071;-76
2022/07/21 04:50:11;;;;;;;15.35;7.70;;;;;;;;;;6156553;23;20128;-76
2022/07/21 04:52:51;;;;;;;;;;;;;;;;;;;;;
2022/07/21 04:55:22;;;;;;;28.73;10.35;;;;;;;;;;6153509;23;20041;-75
2022/07/21 04:57:54;;;;;;;43.40;10.10;;;;;;;;;;6156564;23;20008;-75
2022/07/21 05:00:48;;;;;;;32.30;9.45;;;;;;;;;;6156593;23;20012;-76
2022/07/21 05:03:26;;;;;;;13.38;8.10;;;;;;;;;;6157195;23;20006;-76
2022/07/21 05:12:26;;;;;;;16.02;7.80;;;;;;;;;;6186754;23;20013;-75
2022/07/21 05:15:21;;;;;;;15.40;8.77;;;;;;;;;;6186947;23;20000;-75
2022/07/21 05:18:00;;;;;;;;;;;;;;;;;;;;;
2022/07/21 05:20:58;;;;;;;12.40;8.18;;;;;;;;;;6186997;23;20367;-75
2022/07/21 05:23:35;;;;;;;23.70;8.23;;;;;;;;;;6184659;23;20490;-75
2022/07/21 05:26:27;;;;;;;11.43;7.43;;;;;;;;;;6209703;23;20005;-75
2022/07/21 05:29:04;;;;;;;29.05;8.25;;;;;;;;;;6132543;23;20017;-75
2022/07/21 05:31:32;;;;;;;25.40;8.52;;;;;;;;;;6187148;23;20063;-75
2022/07/21 05:34:04;;;;;;;32.15;9.15;;;;;;;;;;6186597;23;20446;-75
2022/07/21 05:36:34;;;;;;;10.65;7.35;;;;;;;;;;6186825;23;20011;-75
2022/07/21 05:39:18;;;;;;;;;;;;;;;;;;;;;
2022/07/21 05:41:47;;;;;;;19.98;7.65;;;;;;;;;;6182849;23;20401;-75
2022/07/21 05:44:13;;;;;;;11.63;7.32;;;;;;;;;;6186721;23;20005;-75
2022/07/21 05:46:39;;;;;;;10.48;7.03;;;;;;;;;;6187294;23;20009;-75
2022/07/21 05:49:16;;;;;;;15.82;7.65;;;;;;;;;;6186814;23;20004;-75
2022/07/21 05:51:52;;;;;;;13.85;7.65;;;;;;;;;;6180419;23;20001;-75
2022/07/21 05:54:24;;;;;;;8.93;6.53;;;;;;;;;;6186267;23;20005;-75
2022/07/21 05:57:02;;;;;;;23.23;7.50;;;;;;;;;;6207803;23;20005;-75
2022/07/21 05:59:33;;;;;;;14.27;7.35;;;;;;;;;;6186663;23;20005;-75
2022/07/21 06:02:04;;;;;;;11.55;6.75;;;;;;;;;;6186483;23;20005;-75
2022/07/21 06:04:31;;;;;;;10.77;6.82;;;;;;;;;;6186283;23;20012;-75
2022/07/21 06:06:57;;;;;;;10.05;6.40;;;;;;;;;;6186636;23;20078;-75
2022/07/21 06:09:23;;;;;;;12.82;6.38;;;;;;;;;;6186069;23;20028;-75
2022/07/21 06:11:49;;;;;;;7.20;6.32;;;;;;;;;;6209629;23;20005;-75
2022/07/21 06:14:15;;;;;;;8.77;5.88;;;;;;;;;;6186123;23;20428;-75
2022/07/21 06:16:41;;;;;;;13.70;6.35;;;;;;;;;;6210192;23;20076;-75
2022/07/21 06:19:08;;;;;;;7.63;6.43;;;;;;;;;;6209145;23;20009;-75
2022/07/21 06:21:36;;;;;;;10.82;6.45;;;;;;;;;;6209472;23;20005;-75
2022/07/21 06:24:02;;;;;;;9.02;6.05;;;;;;;;;;6209924;23;20012;-75
2022/07/21 06:26:34;;;;;;;9.90;6.20;;;;;;;;;;6186338;23;20001;-75
2022/07/21 06:29:27;;;;;;;10.57;6.63;;;;;;;;;;6183942;23;20017;-75
2022/07/21 06:32:22;;;;;;;8.13;6.10;;;;;;;;;;6170748;23;20008;-75
2022/07/21 06:34:52;;;;;;;10.02;6.10;;;;;;;;;;6212900;23;20009;-76
2022/07/21 06:37:37;;;;;;;8.45;6.22;;;;;;;;;;6185900;23;20432;-75
2022/07/21 06:40:18;;;;;;;14.85;6.43;;;;;;;;;;6186287;23;20009;-76
2022/07/21 06:42:44;;;;;;;10.02;6.60;;;;;;;;;;6186651;23;20001;-75
2022/07/21 06:45:13;;;;;;;21.08;7.00;;;;;;;;;;6186339;23;20005;-75
2022/07/21 06:47:40;;;;;;;10.70;6.55;;;;;;;;;;6186593;23;20028;-76
2022/07/21 06:50:36;;;;;;;7.53;5.95;;;;;;;;;;6186951;23;20013;-75
2022/07/21 06:53:05;;;;;;;15.68;6.55;;;;;;;;;;6156044;23;20017;-76
2022/07/21 06:55:44;;;;;;;9.05;5.75;;;;;;;;;;6184882;23;20000;-75
2022/07/21 06:58:15;;;;;;;10.98;6.05;;;;;;;;;;6207124;23;20089;-70
2022/07/21 07:00:42;;;;;;;8.45;5.72;;;;;;;;;;6185809;23;20005;-70
2022/07/21 07:03:08;;;;;;;8.77;6.10;;;;;;;;;;6185370;23;20028;-70
2022/07/21 07:05:34;;;;;;;7.43;5.97;;;;;;;;;;6184975;23;20055;-70
2022/07/21 07:08:00;;;;;;;8.38;5.75;;;;;;;;;;6181649;23;20107;-71
2022/07/21 07:10:27;;;;;;;7.78;5.65;;;;;;;;;;6184669;23;20474;-70
2022/07/21 07:12:54;;;;;;;10.13;5.88;;;;;;;;;;6185013;23;20005;-70
2022/07/21 07:15:20;;;;;;;9.02;5.80;;;;;;;;;;6186265;23;20001;-70
2022/07/21 07:17:47;;;;;;;11.13;6.22;;;;;;;;;;6184882;23;20016;-71
2022/07/21 07:20:13;;;;;;;9.23;6.10;;;;;;;;;;6184909;23;20079;-71
2022/07/21 07:22:39;;;;;;;8.93;6.25;;;;;;;;;;6185067;23;20005;-71
2022/07/21 07:25:06;;;;;;;8.40;5.97;;;;;;;;;;6185513;23;20028;-71
2022/07/21 07:27:32;;;;;;;9.63;5.93;;;;;;;;;;6185447;23;20001;-70
2022/07/21 07:29:58;;;;;;;9.20;5.40;;;;;;;;;;6185489;23;20016;-70
2022/07/21 07:32:24;;;;;;;7.00;5.32;;;;;;;;;;6185140;23;20005;-71
2022/07/21 07:34:50;;;;;;;7.30;4.97;;;;;;;;;;6185500;23;20005;-71
2022/07/21 07:37:16;;;;;;;14.20;5.70;;;;;;;;;;6186063;23;20005;-71
2022/07/21 07:39:43;;;;;;;10.27;5.25;;;;;;;;;;6187267;23;20009;-73
2022/07/21 07:42:09;;;;;;;10.07;5.07;;;;;;;;;;6187249;23;20341;-71
2022/07/21 07:44:35;;;;;;;9.93;6.07;;;;;;;;;;6186913;23;20005;-70
2022/07/21 07:47:01;;;;;;;11.38;5.60;;;;;;;;;;6187079;23;19997;-70
2022/07/21 07:49:29;;;;;;;11.80;6.00;;;;;;;;;;6186917;23;20016;-70
2022/07/21 07:51:56;;;;;;;10.70;5.78;;;;;;;;;;6187439;23;20030;-71
2022/07/21 07:54:22;;;;;;;9.07;6.10;;;;;;;;;;6185438;23;20028;-70
2022/07/21 07:56:49;;;;;;;6.03;5.35;;;;;;;;;;6185404;23;20001;-71
2022/07/21 07:59:16;;;;;;;11.55;6.68;;;;;;;;;;6186092;23;20013;-73
2022/07/21 08:01:42;;;;;;;7.22;6.25;;;;;;;;;;6187115;23;20005;-73
2022/07/21 08:04:09;;;;;;;9.40;5.60;;;;;;;;;;6186953;23;20012;-72
2022/07/21 08:06:35;;;;;;;9.07;6.35;;;;;;;;;;6186907;23;20060;-75
2022/07/21 08:09:01;;;;;;;12.35;5.75;;;;;;;;;;6182435;23;20025;-71
2022/07/21 08:11:27;;;;;;;20.15;6.35;;;;;;;;;;6179133;23;20450;-73
2022/07/21 08:13:53;;;;;;;15.65;6.78;;;;;;;;;;6186688;23;20162;-73
2022/07/21 08:16:20;;;;;;;7.85;5.75;;;;;;;;;;6185977;23;20055;-75
2022/07/21 08:18:49;;;;;;;13.50;6.10;;;;;;;;;;6186559;23;20001;-73
2022/07/21 08:21:15;;;;;;;10.82;6.03;;;;;;;;;;6186955;23;20009;-71
2022/07/21 08:23:41;;;;;;;8.10;5.85;;;;;;;;;;6186300;23;20001;-72
2022/07/21 08:26:07;;;;;;;10.07;6.18;;;;;;;;;;6186500;23;20005;-73
2022/07/21 08:28:33;;;;;;;21.90;6.65;;;;;;;;;;6185719;23;20031;-71
2022/07/21 08:30:59;;;;;;;9.80;6.35;;;;;;;;;;6185861;23;19997;-72
2022/07/21 08:33:26;;;;;;;8.65;6.03;;;;;;;;;;6185493;23;20005;-70
2022/07/21 08:35:53;;;;;;;8.05;6.10;;;;;;;;;;6185649;23;20072;-69
2022/07/21 08:38:20;;;;;;;11.20;6.05;;;;;;;;;;6186341;23;20012;-73
2022/07/21 08:40:47;;;;;;;6.63;5.53;;;;;;;;;;6185795;23;20044;-73
2022/07/21 08:43:14;;;;;;;10.02;5.80;;;;;;;;;;6184535;23;20005;-72
2022/07/21 08:45:41;;;;;;;6.95;5.25;;;;;;;;;;6186074;23;20001;-72
2022/07/21 08:48:07;;;;;;;6.55;5.30;;;;;;;;;;6185929;23;20353;-74
2022/07/21 08:50:35;;;;;;;7.63;5.22;;;;;;;;;;6185908;23;20012;-70
2022/07/21 08:53:01;;;;;;;7.70;5.53;;;;;;;;;;6185527;23;20001;-71
2022/07/21 08:55:31;;;;;;;33.55;7.07;;;;;;;;;;6185808;23;20340;-72
2022/07/21 08:57:57;;;;;;;20.40;5.80;;;;;;;;;;6185078;23;20009;-73
2022/07/21 09:00:23;;;;;;;59.47;7.63;;;;;;;;;;6185850;23;20005;-73
2022/07/21 09:02:49;;;;;;;17.65;6.07;;;;;;;;;;6186409;23;20051;-72
2022/07/21 09:05:15;;;;;;;8.10;5.13;;;;;;;;;;6185330;23;20001;-73
2022/07/21 09:07:48;;;;;;;7.20;5.15;;;;;;;;;;6186070;23;20013;-72
2022/07/21 09:10:15;;;;;;;9.50;5.13;;;;;;;;;;6184527;23;20017;-71
2022/07/21 09:12:51;;;;;;;8.55;5.90;;;;;;;;;;6186244;23;20001;-71
2022/07/21 09:15:19;;;;;;;10.43;5.80;;;;;;;;;;6184969;23;20005;-71
2022/07/21 09:17:45;;;;;;;17.38;5.63;;;;;;;;;;6186350;23;20416;-70
2022/07/21 09:20:24;;;;;;;8.38;5.53;;;;;;;;;;6185065;23;20016;-71
2022/07/21 09:23:07;;;;;;;8.70;5.57;;;;;;;;;;6184551;23;20005;-71
2022/07/21 09:25:34;;;;;;;15.13;5.20;;;;;;;;;;6184552;23;20310;-71
2022/07/21 09:28:08;;;;;;;7.75;5.70;;;;;;;;;;6185398;23;20105;-72
2022/07/21 09:30:47;;;;;;;12.18;6.43;;;;;;;;;;6209951;23;20012;-72
2022/07/21 09:33:21;;;;;;;6.93;5.30;;;;;;;;;;6186163;23;20000;-72
2022/07/21 09:36:13;;;;;;;7.55;5.20;;;;;;;;;;6186284;23;20015;-72
2022/07/21 09:38:44;;;;;;;8.55;5.82;;;;;;;;;;6169306;23;20009;-72
2022/07/21 09:41:14;;;;;;;10.65;5.72;;;;;;;;;;6183619;23;20059;-71
2022/07/21 09:43:42;;;;;;;7.20;5.20;;;;;;;;;;6185869;23;20005;-71
2022/07/21 09:46:10;;;;;;;7.38;5.20;;;;;;;;;;6184279;23;20001;-71
2022/07/21 09:48:37;;;;;;;9.90;5.35;;;;;;;;;;6209797;23;20009;-71
2022/07/21 09:51:41;;;;;;;7.85;5.30;;;;;;;;;;6185403;23;20036;-71
2022/07/21 09:54:08;;;;;;;6.85;5.30;;;;;;;;;;6062733;23;20089;-71
2022/07/21 09:56:36;;;;;;;6.82;5.20;;;;;;;;;;6157741;23;20368;-72
2022/07/21 09:59:03;;;;;;;10.30;5.50;;;;;;;;;;6208718;23;20009;-71
2022/07/21 10:01:30;;;;;;;7.13;4.85;;;;;;;;;;6186518;23;20009;-70
2022/07/21 10:03:56;;;;;;;8.68;5.47;;;;;;;;;;6186731;23;19997;-71
2022/07/21 10:06:29;;;;;;;17.45;5.68;;;;;;;;;;6186001;23;20467;-71
2022/07/21 10:08:57;;;;;;;7.28;5.47;;;;;;;;;;6184382;23;20027;-71
2022/07/21 10:11:23;;;;;;;6.93;4.75;;;;;;;;;;6185799;23;20025;-72
2022/07/21 10:13:50;;;;;;;5.88;5.10;;;;;;;;;;6185614;23;20068;-72
2022/07/21 10:16:19;;;;;;;7.82;4.93;;;;;;;;;;6186212;23;20056;-71
2022/07/21 10:18:51;;;;;;;8.88;4.47;;;;;;;;;;6185970;23;20001;-72
2022/07/21 10:21:29;;;;;;;12.10;5.22;;;;;;;;;;6185850;23;20023;-72
2022/07/21 10:23:55;;;;;;;6.95;5.00;;;;;;;;;;6185312;23;20005;-73
2022/07/21 10:26:21;;;;;;;5.82;4.90;;;;;;;;;;6185846;23;20005;-73
2022/07/21 10:28:48;;;;;;;10.05;5.70;;;;;;;;;;6186267;23;20012;-72
2022/07/21 10:31:20;;;;;;;7.80;4.95;;;;;;;;;;6184499;23;20001;-72
2022/07/21 10:33:46;;;;;;;6.63;5.32;;;;;;;;;;6185499;23;20339;-72
2022/07/21 10:36:33;;;;;;;94.07;75.80;;;;;;;;;;6185384;23;20009;-72
2022/07/21 10:39:08;;;;;;;7.53;6.57;;;;;;;;;;6173388;23;20084;-72
2022/07/21 10:41:39;;;;;;;8.27;5.75;;;;;;;;;;6185718;23;20079;-72
2022/07/21 10:44:05;;;;;;;;;;;;;;;;;;6186707;23;20005;-72
2022/07/21 10:46:35;;;;;;;6.95;4.78;;;;;;;;;;6183789;23;20320;-72
2022/07/21 10:49:01;;;;;;;7.78;5.03;;;;;;;;;;6186534;23;20084;-72
2022/07/21 10:51:27;;;;;;;7.55;4.65;;;;;;;;;;6185747;23;20005;-72
2022/07/21 10:54:34;;;;;;;6.50;5.18;;;;;;;;;;6185717;23;20084;-70
2022/07/21 10:57:18;;;;;;;8.93;4.90;;;;;;;;;;6065919;23;20499;-70
2022/07/21 11:00:03;;;;;;;6.22;5.18;;;;;;;;;;6062032;23;20350;-73
2022/07/21 11:02:29;;;;;;;11.07;5.70;;;;;;;;;;6153592;23;20436;-72
2022/07/21 11:05:05;;;;;;;8.30;4.95;;;;;;;;;;6185061;23;20008;-71
2022/07/21 11:07:49;;;;;;;11.25;5.25;;;;;;;;;;6185439;23;20064;-72
2022/07/21 11:10:18;;;;;;;8.23;4.97;;;;;;;;;;6185611;23;20057;-71
2022/07/21 11:12:56;;;;;;;7.30;5.07;;;;;;;;;;6185293;23;20028;-71
2022/07/21 11:15:41;;;;;;;9.30;6.13;;;;;;;;;;6187416;23;20002;-72
2022/07/21 11:18:08;;;;;;;29.50;9.82;;;;;;;;;;6186344;23;20020;-72
2022/07/21 11:20:34;;;;;;;19.75;10.88;;;;;;;;;;6187133;23;20016;-72
2022/07/21 11:23:03;;;;;;;32.95;9.05;;;;;;;;;;6186810;23;20008;-72
2022/07/21 11:25:34;;;;;;;23.50;8.10;;;;;;;;;;6186722;23;20005;-72
2022/07/21 11:28:00;;;;;;;8.73;5.68;;;;;;;;;;6186582;23;20071;-72
2022/07/21 11:30:26;;;;;;;15.05;6.25;;;;;;;;;;6186637;23;20009;-72
2022/07/21 11:32:53;;;;;;;10.25;5.50;;;;;;;;;;6187457;23;20005;-72
2022/07/21 11:35:19;;;;;;;7.68;5.28;;;;;;;;;;6186527;23;20005;-73
2022/07/21 11:37:47;;;;;;;7.95;5.07;;;;;;;;;;6186039;23;20321;-72
2022/07/21 11:40:17;;;;;;;7.57;5.15;;;;;;;;;;6186678;23;20044;-72
2022/07/21 11:42:43;;;;;;;;;;;;;;;;;;6186527;23;20072;-72
2022/07/21 11:45:10;;;;;;;6.57;4.75;;;;;;;;;;6187083;23;20338;-72
2022/07/21 11:47:37;;;;;;;6.95;5.03;;;;;;;;;;6186297;23;20196;-72
2022/07/21 11:50:06;;;;;;;7.82;4.68;;;;;;;;;;6187120;23;20055;-72
2022/07/21 11:52:33;;;;;;;12.57;5.47;;;;;;;;;;6186993;23;20008;-72
2022/07/21 11:55:00;;;;;;;5.55;5.05;;;;;;;;;;6186457;23;20440;-72
2022/07/21 11:57:27;;;;;;;5.28;4.70;;;;;;;;;;6186703;23;20204;-73
2022/07/21 11:59:54;;;;;;;12.75;5.32;;;;;;;;;;6186897;23;20008;-72
2022/07/21 12:02:22;;;;;;;11.88;5.35;;;;;;;;;;6186120;23;20012;-72
2022/07/21 12:04:48;;;;;;;7.68;5.38;;;;;;;;;;6187077;23;20428;-73
2022/07/21 12:07:17;;;;;;;7.53;5.10;;;;;;;;;;6185978;23;20009;-73
2022/07/21 12:09:44;;;;;;;13.85;5.65;;;;;;;;;;6186337;23;20021;-73
2022/07/21 12:12:11;;;;;;;6.57;4.75;;;;;;;;;;6185296;23;20029;-73
2022/07/21 12:14:48;;;;;;;8.82;4.80;;;;;;;;;;6186472;23;20005;-73
2022/07/21 12:17:15;;;;;;;5.93;4.90;;;;;;;;;;6186207;23;20027;-73
2022/07/21 12:19:41;;;;;;;9.57;4.85;;;;;;;;;;6186733;23;20079;-73
2022/07/21 12:22:08;;;;;;;8.30;6.45;;;;;;;;;;6186309;23;20037;-72
2022/07/21 12:24:49;;;;;;;8.07;6.55;;;;;;;;;;6186109;23;20068;-72
2022/07/21 12:27:17;;;;;;;7.35;5.15;;;;;;;;;;6186273;23;20068;-72
2022/07/21 12:29:43;;;;;;;11.90;5.57;;;;;;;;;;6186371;23;20009;-73
2022/07/21 12:32:09;;;;;;;11.45;4.72;;;;;;;;;;6185944;23;20005;-73
2022/07/21 12:34:48;;;;;;;7.22;4.75;;;;;;;;;;6186150;23;20032;-73
2022/07/21 12:37:15;;;;;;;7.00;4.60;;;;;;;;;;6186920;23;20085;-73
2022/07/21 12:39:56;;;;;;;7.80;5.43;;;;;;;;;;6185624;23;20013;-73
2022/07/21 12:42:32;;;;;;;9.57;4.70;;;;;;;;;;6185600;23;20031;-73
2022/07/21 12:44:59;;;;;;;7.07;4.55;;;;;;;;;;6186020;23;20011;-73
2022/07/21 12:47:26;;;;;;;6.85;4.30;;;;;;;;;;6186525;23;20008;-73
2022/07/21 12:49:58;;;;;;;9.52;4.60;;;;;;;;;;6186768;23;20009;-72
2022/07/21 12:52:25;;;;;;;7.97;5.25;;;;;;;;;;6186397;23;20001;-73
2022/07/21 12:54:52;;;;;;;7.13;4.60;;;;;;;;;;6185462;23;20005;-73
2022/07/21 12:57:18;;;;;;;7.95;5.05;;;;;;;;;;6185864;23;20439;-73
2022/07/21 12:59:44;;;;;;;12.50;4.93;;;;;;;;;;6185614;23;20063;-73
2022/07/21 13:02:10;;;;;;;5.03;4.30;;;;;;;;;;6186361;23;20120;-72
2022/07/21 13:04:36;;;;;;;9.02;4.85;;;;;;;;;;6186398;23;20005;-73
2022/07/21 13:07:02;;;;;;;9.85;4.72;;;;;;;;;;6209168;23;20001;-73
2022/07/21 13:09:28;;;;;;;5.88;4.82;;;;;;;;;;6186203;23;20017;-73
2022/07/21 13:11:54;;;;;;;5.93;4.60;;;;;;;;;;6185464;23;20072;-73
2022/07/21 13:14:21;;;;;;;6.97;5.10;;;;;;;;;;6209012;23;20060;-73
2022/07/21 13:16:47;;;;;;;6.75;4.85;;;;;;;;;;6186458;23;20016;-73
2022/07/21 13:19:13;;;;;;;5.72;4.55;;;;;;;;;;6185615;23;20491;-73
2022/07/21 13:21:39;;;;;;;6.18;4.63;;;;;;;;;;6185875;23;20029;-73
2022/07/21 13:24:05;;;;;;;5.95;5.28;;;;;;;;;;6185757;23;20005;-73
2022/07/21 13:26:32;;;;;;;11.55;10.40;;;;;;;;;;6184773;23;20001;-73
2022/07/21 13:28:58;;;;;;;10.82;8.98;;;;;;;;;;6185713;23;20012;-72
2022/07/21 13:31:24;;;;;;;8.95;5.35;;;;;;;;;;6186409;23;20067;-73
2022/07/21 13:33:50;;;;;;;5.15;4.32;;;;;;;;;;6185222;23;20009;-73
2022/07/21 13:36:16;;;;;;;5.78;4.70;;;;;;;;;;6185907;23;20028;-73
2022/07/21 13:38:42;;;;;;;6.57;4.68;;;;;;;;;;6185443;23;20027;-73
2022/07/21 13:41:09;;;;;;;6.28;4.50;;;;;;;;;;6185439;23;20428;-73
2022/07/21 13:43:36;;;;;;;6.30;4.50;;;;;;;;;;6185447;23;20076;-73
2022/07/21 13:46:03;;;;;;;8.88;4.40;;;;;;;;;;6185989;23;20001;-73
2022/07/21 13:48:29;;;;;;;6.35;4.60;;;;;;;;;;6186167;23;20077;-73
2022/07/21 13:50:55;;;;;;;6.50;4.60;;;;;;;;;;6186132;23;20027;-73
2022/07/21 13:53:21;;;;;;;7.93;4.70;;;;;;;;;;6208473;23;20428;-73
2022/07/21 13:55:47;;;;;;;8.05;4.70;;;;;;;;;;6185228;23;20011;-73
2022/07/21 13:58:13;;;;;;;10.52;5.18;;;;;;;;;;6185855;23;20012;-73
2022/07/21 14:00:39;;;;;;;5.43;4.68;;;;;;;;;;6185109;23;20005;-72
2022/07/21 14:03:06;;;;;;;6.68;4.07;;;;;;;;;;6209511;23;20036;-72
2022/07/21 14:05:32;;;;;;;7.47;4.82;;;;;;;;;;6185796;23;20020;-72
2022/07/21 14:07:58;;;;;;;8.55;4.30;;;;;;;;;;6184573;23;20092;-72
2022/07/21 14:10:24;;;;;;;7.15;4.72;;;;;;;;;;6184497;23;20008;-72
2022/07/21 14:12:50;;;;;;;8.10;4.95;;;;;;;;;;6185752;23;20009;-72
2022/07/21 14:15:17;;;;;;;9.77;4.40;;;;;;;;;;6185389;23;20221;-72
2022/07/21 14:17:43;;;;;;;9.85;4.78;;;;;;;;;;6185296;23;20448;-72
2022/07/21 14:20:09;;;;;;;23.88;18.50;;;;;;;;;;6185117;23;20004;-72
2022/07/21 14:22:35;;;;;;;8.68;6.80;;;;;;;;;;6185566;23;20440;-72
2022/07/21 14:25:20;;;;;;;9.45;8.55;;;;;;;;;;6184996;23;20001;-72
2022/07/21 14:27:50;;;;;;;7.50;4.80;;;;;;;;;;6184833;23;20325;-73
2022/07/21 14:30:17;;;;;;;6.80;4.95;;;;;;;;;;6185363;23;20044;-73
2022/07/21 14:32:45;;;;;;;5.93;4.25;;;;;;;;;;6208806;23;20005;-73
2022/07/21 14:35:11;;;;;;;6.60;4.18;;;;;;;;;;6185861;23;20001;-73
2022/07/21 14:37:38;;;;;;;5.30;4.80;;;;;;;;;;6184640;23;20084;-73
2022/07/21 14:40:05;;;;;;;8.02;4.38;;;;;;;;;;6185000;23;20109;-73
2022/07/21 14:42:31;;;;;;;7.60;5.25;;;;;;;;;;6185632;23;20440;-73
2022/07/21 14:44:58;;;;;;;7.10;4.68;;;;;;;;;;6184958;23;20009;-73
2022/07/21 14:47:24;;;;;;;12.52;5.75;;;;;;;;;;6187490;23;20005;-73
2022/07/21 14:49:50;;;;;;;6.60;3.80;;;;;;;;;;6187814;23;20001;-73
2022/07/21 14:52:16;;;;;;;8.38;4.30;;;;;;;;;;6186682;23;20020;-73
2022/07/21 14:54:42;;;;;;;5.43;4.93;;;;;;;;;;6186728;23;20047;-73
2022/07/21 14:57:09;;;;;;;12.20;4.13;;;;;;;;;;6210410;23;20033;-72
2022/07/21 14:59:35;;;;;;;6.28;4.15;;;;;;;;;;6187443;23;20005;-72
2022/07/21 15:02:01;;;;;;;20.85;17.65;;;;;;;;;;6187204;23;20009;-72
2022/07/21 15:04:27;;;;;;;126.60;113.45;;;;;;;;;;6187300;23;20005;-72